createdAt,value
2023-03-20T00:00:02.637Z,0
2023-03-20T00:01:42.273Z,0
2023-03-20T00:03:22.073Z,0
2023-03-20T00:05:01.818Z,0
2023-03-20T00:06:41.635Z,0
2023-03-20T00:08:21.340Z,0
2023-03-20T00:10:01.116Z,0
2023-03-20T00:11:40.884Z,0
2023-03-20T00:13:20.650Z,0
2023-03-20T00:15:00.424Z,0
2023-03-20T00:16:40.172Z,0
2023-03-20T00:18:19.948Z,0
2023-03-20T00:19:59.718Z,0
2023-03-20T00:21:39.486Z,0
2023-03-20T00:23:19.246Z,0
2023-03-20T00:24:59.035Z,0
2023-03-20T00:26:38.785Z,0
2023-03-20T00:28:18.582Z,0
2023-03-20T00:29:58.484Z,0
2023-03-20T00:31:38.097Z,0
2023-03-20T00:33:17.859Z,0
2023-03-20T00:34:57.631Z,0
2023-03-20T00:36:37.404Z,0
2023-03-20T00:38:17.161Z,0
2023-03-20T00:39:56.933Z,0
2023-03-20T00:41:36.701Z,0
2023-03-20T00:43:16.502Z,0
2023-03-20T00:44:56.365Z,0
2023-03-20T00:46:35.990Z,0
2023-03-20T00:48:15.762Z,0
2023-03-20T00:49:55.549Z,0
2023-03-20T00:51:35.286Z,0
2023-03-20T00:53:15.054Z,0
2023-03-20T00:54:54.880Z,0
2023-03-20T00:56:34.594Z,0
2023-03-20T00:58:14.366Z,0
2023-03-20T00:59:54.139Z,0
2023-03-20T01:01:33.904Z,0
2023-03-20T01:03:13.674Z,0
2023-03-20T01:04:53.446Z,0
2023-03-20T01:06:33.194Z,0
2023-03-20T01:08:12.976Z,0
2023-03-20T01:09:52.752Z,0
2023-03-20T01:11:32.511Z,0
2023-03-20T01:13:12.276Z,0
2023-03-20T01:14:52.048Z,0
2023-03-20T01:16:31.821Z,0
2023-03-20T01:18:11.587Z,0
2023-03-20T01:19:51.379Z,0
2023-03-20T01:21:31.101Z,0
2023-03-20T01:23:10.885Z,0
2023-03-20T01:24:50.645Z,0
2023-03-20T01:26:30.398Z,0
2023-03-20T01:28:10.195Z,0
2023-03-20T01:29:49.942Z,0
2023-03-20T01:31:29.704Z,0
2023-03-20T01:33:09.480Z,0
2023-03-20T01:34:49.272Z,0
2023-03-20T01:36:29.011Z,0
2023-03-20T01:38:08.789Z,0
2023-03-20T01:39:48.549Z,0
2023-03-20T01:41:28.345Z,0
2023-03-20T01:43:08.089Z,0
2023-03-20T01:44:47.862Z,0
2023-03-20T01:46:27.623Z,0
2023-03-20T01:48:07.381Z,0
2023-03-20T01:49:47.148Z,0
2023-03-20T01:51:26.955Z,0
2023-03-20T01:53:06.694Z,0
2023-03-20T01:54:46.456Z,0
2023-03-20T01:56:26.230Z,0
2023-03-20T01:58:05.998Z,0
2023-03-20T01:59:45.759Z,0
2023-03-20T02:01:25.531Z,0
2023-03-20T02:03:05.376Z,0
2023-03-20T02:04:45.062Z,0
2023-03-20T02:06:24.829Z,0
2023-03-20T02:08:04.601Z,0
2023-03-20T02:09:44.364Z,0
2023-03-20T02:11:24.131Z,0
2023-03-20T02:13:03.908Z,0
2023-03-20T02:14:43.658Z,0
2023-03-20T02:16:23.439Z,0
2023-03-20T02:18:03.202Z,0
2023-03-20T02:19:42.968Z,0
2023-03-20T02:21:22.735Z,0
2023-03-20T02:23:02.504Z,0
2023-03-20T02:24:42.278Z,0
2023-03-20T02:26:22.053Z,0
2023-03-20T02:28:01.809Z,0
2023-03-20T02:29:41.570Z,0
2023-03-20T02:31:21.336Z,0
2023-03-20T02:33:01.112Z,0
2023-03-20T02:34:40.881Z,0
2023-03-20T02:36:20.929Z,0
2023-03-20T02:38:00.417Z,0
2023-03-20T02:39:40.178Z,0
2023-03-20T02:41:19.972Z,0
2023-03-20T02:42:59.748Z,0
2023-03-20T02:44:39.481Z,0
2023-03-20T02:46:19.254Z,0
2023-03-20T02:47:59.025Z,0
2023-03-20T02:49:38.833Z,0
2023-03-20T02:51:18.543Z,0
2023-03-20T02:52:58.313Z,0
2023-03-20T02:54:38.146Z,0
2023-03-20T02:56:17.843Z,0
2023-03-20T02:57:57.622Z,0
2023-03-20T02:59:37.485Z,0
2023-03-20T03:01:17.136Z,0
2023-03-20T03:02:56.916Z,0
2023-03-20T03:04:36.677Z,0
2023-03-20T03:06:16.441Z,0
2023-03-20T03:07:56.220Z,0
2023-03-20T03:09:35.986Z,0
2023-03-20T03:11:15.761Z,0
2023-03-20T03:12:55.528Z,0
2023-03-20T03:14:35.293Z,0
2023-03-20T03:16:15.048Z,0
2023-03-20T03:17:54.824Z,0
2023-03-20T03:19:34.602Z,0
2023-03-20T03:21:14.409Z,0
2023-03-20T03:22:54.133Z,0
2023-03-20T03:24:33.932Z,0
2023-03-20T03:26:13.662Z,0
2023-03-20T03:27:53.423Z,0
2023-03-20T03:29:33.200Z,0
2023-03-20T03:31:12.965Z,0
2023-03-20T03:32:52.743Z,0
2023-03-20T03:34:32.495Z,0
2023-03-20T03:36:12.258Z,0
2023-03-20T03:37:52.028Z,0
2023-03-20T03:39:31.802Z,0
2023-03-20T03:41:11.558Z,0
2023-03-20T03:42:51.326Z,0
2023-03-20T03:44:31.098Z,0
2023-03-20T03:46:10.877Z,0
2023-03-20T03:47:50.636Z,0
2023-03-20T03:49:30.400Z,0
2023-03-20T03:51:10.150Z,0
2023-03-20T03:52:49.945Z,0
2023-03-20T03:54:29.685Z,0
2023-03-20T03:56:09.450Z,0
2023-03-20T03:57:49.328Z,0
2023-03-20T03:59:28.983Z,0
2023-03-20T04:01:08.737Z,0
2023-03-20T04:02:48.516Z,0
2023-03-20T04:04:28.292Z,0
2023-03-20T04:06:08.041Z,0
2023-03-20T04:07:47.803Z,0
2023-03-20T04:09:27.577Z,0
2023-03-20T04:11:07.341Z,0
2023-03-20T04:12:47.110Z,0
2023-03-20T04:14:26.910Z,0
2023-03-20T04:16:06.626Z,0
2023-03-20T04:17:46.390Z,0
2023-03-20T04:19:26.157Z,0
2023-03-20T04:21:05.966Z,0
2023-03-20T04:22:45.703Z,0
2023-03-20T04:24:25.440Z,0
2023-03-20T04:26:05.223Z,0
2023-03-20T04:27:44.984Z,0
2023-03-20T04:29:24.750Z,0
2023-03-20T04:31:04.505Z,0
2023-03-20T04:32:44.269Z,0
2023-03-20T04:34:24.034Z,0
2023-03-20T04:36:03.795Z,0
2023-03-20T04:37:43.576Z,0
2023-03-20T04:39:23.336Z,0
2023-03-20T04:41:03.095Z,0
2023-03-20T04:42:42.917Z,0
2023-03-20T04:44:22.616Z,0
2023-03-20T04:46:02.377Z,0
2023-03-20T04:47:42.163Z,0
2023-03-20T04:49:21.922Z,0
2023-03-20T04:51:01.689Z,0
2023-03-20T04:52:41.436Z,0
2023-03-20T04:54:21.218Z,0
2023-03-20T04:56:00.976Z,0
2023-03-20T04:57:40.745Z,0
2023-03-20T04:59:20.505Z,0
2023-03-20T05:01:00.297Z,0
2023-03-20T05:02:40.058Z,0
2023-03-20T05:04:19.822Z,0
2023-03-20T05:05:59.588Z,0
2023-03-20T05:07:39.361Z,0
2023-03-20T05:09:19.160Z,0
2023-03-20T05:10:58.879Z,0
2023-03-20T05:12:38.668Z,0
2023-03-20T05:14:18.458Z,0
2023-03-20T05:15:58.173Z,0
2023-03-20T05:17:37.952Z,0
2023-03-20T05:19:17.717Z,0
2023-03-20T05:20:57.485Z,0
2023-03-20T05:22:37.247Z,0
2023-03-20T05:24:17.015Z,0
2023-03-20T05:25:56.798Z,0
2023-03-20T05:27:36.565Z,0
2023-03-20T05:29:16.328Z,0
2023-03-20T05:30:56.167Z,0
2023-03-20T05:32:35.923Z,0
2023-03-20T05:34:15.617Z,0
2023-03-20T05:35:55.406Z,0
2023-03-20T05:37:35.190Z,0.03
2023-03-20T05:39:14.924Z,0
2023-03-20T05:40:54.695Z,0
2023-03-20T05:42:34.469Z,0.02
2023-03-20T05:44:14.253Z,0.03
2023-03-20T05:45:54.009Z,0.03
2023-03-20T05:47:33.782Z,0
2023-03-20T05:49:13.573Z,0.06
2023-03-20T05:50:53.318Z,0.07
2023-03-20T05:52:33.077Z,0.07
2023-03-20T05:54:12.861Z,0.08
2023-03-20T05:55:52.612Z,0.08
2023-03-20T05:57:32.393Z,0.15
2023-03-20T05:59:12.152Z,0.11
2023-03-20T06:00:51.924Z,0.11
2023-03-20T06:02:31.692Z,0.14
2023-03-20T06:04:11.468Z,0.15
2023-03-20T06:05:51.310Z,0.17
2023-03-20T06:07:30.999Z,0.18
2023-03-20T06:09:10.770Z,0.18
2023-03-20T06:10:50.538Z,0.21
2023-03-20T06:12:30.309Z,0.24
2023-03-20T06:14:10.089Z,0.26
2023-03-20T06:15:49.848Z,0.26
2023-03-20T06:17:29.618Z,0.3
2023-03-20T06:19:09.403Z,0.34
2023-03-20T06:20:49.157Z,0.36
2023-03-20T06:22:28.948Z,0.34
2023-03-20T06:24:08.730Z,0.42
2023-03-20T06:25:48.479Z,0.44
2023-03-20T06:27:28.254Z,0.43
2023-03-20T06:29:08.031Z,0.41
2023-03-20T06:30:47.777Z,0.43
2023-03-20T06:32:27.554Z,0.42
2023-03-20T06:34:07.329Z,0.45
2023-03-20T06:35:47.086Z,0.36
2023-03-20T06:37:26.865Z,0.34
2023-03-20T06:39:06.640Z,0.29
2023-03-20T06:40:46.419Z,0.4
2023-03-20T06:42:26.174Z,0.41
2023-03-20T06:44:05.937Z,0.38
2023-03-20T06:45:45.713Z,0.34
2023-03-20T06:47:25.540Z,0.26
2023-03-20T06:49:05.261Z,0.3
2023-03-20T06:50:45.018Z,0.34
2023-03-20T06:52:24.820Z,0.33
2023-03-20T06:54:04.570Z,0.3
2023-03-20T06:55:44.336Z,0.27
2023-03-20T06:57:24.117Z,0.31
2023-03-20T06:59:03.870Z,0.29
2023-03-20T07:00:43.659Z,0.26
2023-03-20T07:02:23.429Z,0.28
2023-03-20T07:04:03.188Z,0.31
2023-03-20T07:05:42.974Z,0.47
2023-03-20T07:07:22.762Z,0.24
2023-03-20T07:09:02.502Z,0.22
2023-03-20T07:10:42.409Z,0.26
2023-03-20T07:12:22.035Z,0.27
2023-03-20T07:14:01.817Z,0.29
2023-03-20T07:15:41.610Z,0.32
2023-03-20T07:17:21.351Z,0.36
2023-03-20T07:19:01.125Z,0.38
2023-03-20T07:20:40.895Z,0.41
2023-03-20T07:22:20.691Z,0.33
2023-03-20T07:24:00.448Z,0.28
2023-03-20T07:25:40.207Z,0.33
2023-03-20T07:27:19.991Z,0.38
2023-03-20T07:28:59.765Z,0.4
2023-03-20T07:30:39.517Z,0.36
2023-03-20T07:32:19.298Z,0.36
2023-03-20T07:33:59.074Z,0.36
2023-03-20T07:35:38.835Z,0.39
2023-03-20T07:37:18.630Z,0.37
2023-03-20T07:38:58.382Z,0.37
2023-03-20T07:40:38.159Z,0.37
2023-03-20T07:42:17.908Z,0.34
2023-03-20T07:43:57.719Z,0.3
2023-03-20T07:45:37.457Z,0.3
2023-03-20T07:47:17.224Z,0.3
2023-03-20T07:48:56.987Z,0.32
2023-03-20T07:50:36.866Z,0.34
2023-03-20T07:52:16.542Z,0.33
2023-03-20T07:53:56.314Z,0.32
2023-03-20T07:55:36.091Z,0.3
2023-03-20T07:57:15.873Z,0.43
2023-03-20T07:58:55.744Z,0.41
2023-03-20T08:00:35.382Z,0.39
2023-03-20T08:02:15.138Z,0.39
2023-03-20T08:03:54.937Z,0.38
2023-03-20T08:05:34.684Z,0.36
2023-03-20T08:07:14.583Z,0.3
2023-03-20T08:08:54.240Z,0.25
2023-03-20T08:10:34.018Z,0.27
2023-03-20T08:12:13.775Z,0.27
2023-03-20T08:13:53.565Z,0.27
2023-03-20T08:15:33.308Z,0.32
2023-03-20T08:17:13.089Z,0.37
2023-03-20T08:18:52.991Z,0.4
2023-03-20T08:20:32.632Z,0.73
2023-03-20T08:22:12.399Z,1.14
2023-03-20T08:23:52.164Z,0.97
2023-03-20T08:25:32.043Z,0.81
2023-03-20T08:27:11.784Z,0.78
2023-03-20T08:28:51.493Z,0.99
2023-03-20T08:30:31.247Z,1.33
2023-03-20T08:32:11.047Z,0.39
2023-03-20T08:33:50.799Z,0.41
2023-03-20T08:35:30.567Z,0.41
2023-03-20T08:37:10.345Z,0.41
2023-03-20T08:38:50.188Z,0.42
2023-03-20T08:40:29.887Z,0.42
2023-03-20T08:42:09.664Z,0.42
2023-03-20T08:43:49.469Z,0.4
2023-03-20T08:45:29.327Z,0.41
2023-03-20T08:47:08.962Z,0.42
2023-03-20T08:48:48.841Z,0.39
2023-03-20T08:50:28.595Z,0.38
2023-03-20T08:52:08.406Z,0.39
2023-03-20T08:53:48.103Z,0.4
2023-03-20T08:55:27.980Z,0.38
2023-03-20T08:57:07.677Z,0.38
2023-03-20T08:58:47.488Z,0.37
2023-03-20T09:00:27.139Z,0.36
2023-03-20T09:02:06.909Z,0.39
2023-03-20T09:03:46.720Z,0.37
2023-03-20T09:05:26.545Z,0.38
2023-03-20T09:07:06.215Z,0.39
2023-03-20T09:08:46.027Z,0.37
2023-03-20T09:10:25.736Z,0.38
2023-03-20T09:12:05.502Z,0.39
2023-03-20T09:13:45.413Z,0.4
2023-03-20T09:15:25.030Z,0.43
2023-03-20T09:17:04.830Z,0.38
2023-03-20T09:18:44.747Z,0.37
2023-03-20T09:20:24.360Z,0.39
2023-03-20T09:22:04.123Z,0.39
2023-03-20T09:23:43.898Z,0.39
2023-03-20T09:25:23.707Z,0.39
2023-03-20T09:27:03.430Z,0.4
2023-03-20T09:28:43.213Z,0.38
2023-03-20T09:30:22.984Z,0.4
2023-03-20T09:32:02.741Z,0.39
2023-03-20T09:33:42.539Z,0.38
2023-03-20T09:35:22.336Z,0.38
2023-03-20T09:37:02.230Z,0.38
2023-03-20T09:38:41.831Z,0.38
2023-03-20T09:40:21.596Z,0.38
2023-03-20T09:42:01.380Z,0.38
2023-03-20T09:43:41.140Z,0.39
2023-03-20T09:45:20.915Z,0.38
2023-03-20T09:47:00.671Z,0.4
2023-03-20T09:48:40.445Z,0.36
2023-03-20T09:50:20.209Z,0.37
2023-03-20T09:51:59.999Z,0.36
2023-03-20T09:53:39.752Z,0.38
2023-03-20T09:55:19.542Z,0.39
2023-03-20T09:56:59.321Z,0.37
2023-03-20T09:58:39.066Z,0.38
2023-03-20T10:00:18.842Z,0.38
2023-03-20T10:01:58.630Z,0.39
2023-03-20T10:03:38.419Z,0.38
2023-03-20T10:05:18.189Z,0.36
2023-03-20T10:06:57.933Z,0.38
2023-03-20T10:08:37.736Z,0.37
2023-03-20T10:10:17.566Z,0.37
2023-03-20T10:11:57.396Z,0.38
2023-03-20T10:13:37.216Z,0.37
2023-03-20T10:15:16.779Z,0.41
2023-03-20T10:16:56.572Z,0.38
2023-03-20T10:18:36.321Z,0.4
2023-03-20T10:20:16.120Z,0.39
2023-03-20T10:21:55.897Z,0.4
2023-03-20T10:23:35.647Z,0.39
2023-03-20T10:25:15.390Z,0.4
2023-03-20T10:26:55.176Z,0.39
2023-03-20T10:28:34.952Z,0.4
2023-03-20T10:30:14.705Z,0.39
2023-03-20T10:31:54.508Z,0.39
2023-03-20T10:33:34.260Z,0.47
2023-03-20T10:35:14.013Z,0.4
2023-03-20T10:36:53.800Z,0.41
2023-03-20T10:38:33.557Z,0.39
2023-03-20T10:40:13.335Z,0.39
2023-03-20T10:41:53.283Z,0.4
2023-03-20T10:43:32.931Z,0.39
2023-03-20T10:45:12.628Z,0.41
2023-03-20T10:46:52.413Z,0.39
2023-03-20T10:48:32.190Z,0.41
2023-03-20T10:50:11.957Z,0.39
2023-03-20T10:51:51.721Z,0.38
2023-03-20T10:53:31.516Z,0.4
2023-03-20T10:55:11.255Z,0.4
2023-03-20T10:56:51.037Z,0.39
2023-03-20T10:58:30.810Z,0.37
2023-03-20T11:00:10.647Z,0.39
2023-03-20T11:01:50.423Z,0.4
2023-03-20T11:03:30.128Z,0.39
2023-03-20T11:05:09.892Z,0.4
2023-03-20T11:06:49.657Z,0.41
2023-03-20T11:08:29.443Z,0.41
2023-03-20T11:10:09.201Z,0.4
2023-03-20T11:11:48.980Z,0.42
2023-03-20T11:13:28.742Z,0.39
2023-03-20T11:15:08.531Z,0.4
2023-03-20T11:16:48.284Z,0.39
2023-03-20T11:18:28.055Z,0.39
2023-03-20T11:20:07.827Z,0.4
2023-03-20T11:21:47.593Z,0.39
2023-03-20T11:23:27.365Z,0.4
2023-03-20T11:25:07.134Z,0.37
2023-03-20T11:26:46.909Z,0.4
2023-03-20T11:28:26.696Z,0.39
2023-03-20T11:30:06.445Z,0.4
2023-03-20T11:31:46.237Z,0
2023-03-20T11:33:25.985Z,0
2023-03-20T11:35:05.775Z,0
2023-03-20T11:36:45.518Z,0
2023-03-20T11:38:25.299Z,0
2023-03-20T11:40:05.158Z,0
2023-03-20T11:41:44.834Z,0
2023-03-20T11:43:24.764Z,0.04
2023-03-20T11:45:04.364Z,0.05
2023-03-20T11:46:44.159Z,0.06
2023-03-20T11:48:23.921Z,0.06
2023-03-20T11:50:03.699Z,0.07
2023-03-20T11:51:43.445Z,0.09
2023-03-20T11:53:23.229Z,0.09
2023-03-20T11:55:02.987Z,0.08
2023-03-20T11:56:42.766Z,0.08
2023-03-20T11:58:22.532Z,0.08
2023-03-20T12:00:02.295Z,0.09
2023-03-20T12:01:42.059Z,0.09
2023-03-20T12:03:21.838Z,0.1
2023-03-20T12:05:01.609Z,0.08
2023-03-20T12:06:41.379Z,0.08
2023-03-20T12:08:21.155Z,0.09
2023-03-20T12:10:00.913Z,0.09
2023-03-20T12:11:40.697Z,0.09
2023-03-20T12:13:20.465Z,0.09
2023-03-20T12:15:00.257Z,0.09
2023-03-20T12:16:40.013Z,0.08
2023-03-20T12:18:19.804Z,0.1
2023-03-20T12:19:59.550Z,0.1
2023-03-20T12:21:39.316Z,0.09
2023-03-20T12:23:19.072Z,0.09
2023-03-20T12:24:58.886Z,0.1
2023-03-20T12:26:38.641Z,0.09
2023-03-20T12:28:18.390Z,0.09
2023-03-20T12:29:58.178Z,0.09
2023-03-20T12:31:37.940Z,0.08
2023-03-20T12:33:17.744Z,0.08
2023-03-20T12:34:57.479Z,0.09
2023-03-20T12:36:37.244Z,0.09
2023-03-20T12:38:17.013Z,0.07
2023-03-20T12:39:56.802Z,0.08
2023-03-20T12:41:36.551Z,0.09
2023-03-20T12:43:16.318Z,0.08
2023-03-20T12:44:56.150Z,0.08
2023-03-20T12:46:35.851Z,0.09
2023-03-20T12:48:15.626Z,0.08
2023-03-20T12:49:55.402Z,0.09
2023-03-20T12:51:35.177Z,0.09
2023-03-20T12:53:14.950Z,0.08
2023-03-20T12:54:54.710Z,0.09
2023-03-20T12:56:34.477Z,0.09
2023-03-20T12:58:14.251Z,0.09
2023-03-20T12:59:54.050Z,0.09
2023-03-20T13:01:33.878Z,0.08
2023-03-20T13:03:13.559Z,0.09
2023-03-20T13:04:53.370Z,0.08
2023-03-20T13:06:33.102Z,0.08
2023-03-20T13:08:12.873Z,0.09
2023-03-20T13:09:52.644Z,0.09
2023-03-20T13:11:32.410Z,0.09
2023-03-20T13:13:12.191Z,0.08
2023-03-20T13:14:51.951Z,0.09
2023-03-20T13:16:31.723Z,0.09
2023-03-20T13:18:11.492Z,0.09
2023-03-20T13:19:51.261Z,0.08
2023-03-20T13:21:31.034Z,0.08
2023-03-20T13:23:10.809Z,0.09
2023-03-20T13:24:50.567Z,0.1
2023-03-20T13:26:30.345Z,0.09
2023-03-20T13:28:10.108Z,0.09
2023-03-20T13:29:49.876Z,0.09
2023-03-20T13:31:29.653Z,0.09
2023-03-20T13:33:09.422Z,0.08
2023-03-20T13:34:49.203Z,0.11
2023-03-20T13:36:28.964Z,0.08
2023-03-20T13:38:08.836Z,0.09
2023-03-20T13:39:48.493Z,0.08
2023-03-20T13:41:28.293Z,0.08
2023-03-20T13:43:08.054Z,0.08
2023-03-20T13:44:47.801Z,0.08
2023-03-20T13:46:27.588Z,0.08
2023-03-20T13:48:07.357Z,0.08
2023-03-20T13:49:47.232Z,0.08
2023-03-20T13:51:26.912Z,0.09
2023-03-20T13:53:06.667Z,0.09
2023-03-20T13:54:46.489Z,0.08
2023-03-20T13:56:26.216Z,0.08
2023-03-20T13:58:05.986Z,0.08
2023-03-20T13:59:45.747Z,0.08
2023-03-20T14:01:25.514Z,0.09
2023-03-20T14:03:05.348Z,0.08
2023-03-20T14:04:45.071Z,0.09
2023-03-20T14:06:24.823Z,0.09
2023-03-20T14:08:04.616Z,0.09
2023-03-20T14:09:44.412Z,0.09
2023-03-20T14:11:24.146Z,0.09
2023-03-20T14:13:03.905Z,0.09
2023-03-20T14:14:43.744Z,0.07
2023-03-20T14:16:23.472Z,0.08
2023-03-20T14:18:03.216Z,0.09
2023-03-20T14:19:42.978Z,0.09
2023-03-20T14:21:22.852Z,0.08
2023-03-20T14:23:02.552Z,0.09
2023-03-20T14:24:42.359Z,0.08
2023-03-20T14:26:22.081Z,0.08
2023-03-20T14:28:01.837Z,0.09
2023-03-20T14:29:41.610Z,0.08
2023-03-20T14:31:21.377Z,0.09
2023-03-20T14:33:01.141Z,0.09
2023-03-20T14:34:40.914Z,0.09
2023-03-20T14:36:20.678Z,0.09
2023-03-20T14:38:00.463Z,0.1
2023-03-20T14:39:40.221Z,0.09
2023-03-20T14:41:19.993Z,0.08
2023-03-20T14:42:59.851Z,0.08
2023-03-20T14:44:39.541Z,0.09
2023-03-20T14:46:19.307Z,0.09
2023-03-20T14:47:59.075Z,0.08
2023-03-20T14:49:38.837Z,0.09
2023-03-20T14:51:18.611Z,0.09
2023-03-20T14:52:58.451Z,0.09
2023-03-20T14:54:38.237Z,0.08
2023-03-20T14:56:17.982Z,0.08
2023-03-20T14:57:57.693Z,0.08
2023-03-20T14:59:37.466Z,0.08
2023-03-20T15:01:17.237Z,0.09
2023-03-20T15:02:57.010Z,0.1
2023-03-20T15:04:36.779Z,0.09
2023-03-20T15:06:16.539Z,0.1
2023-03-20T15:07:56.325Z,0.09
2023-03-20T15:09:36.110Z,0.09
2023-03-20T15:11:15.912Z,0.09
2023-03-20T15:12:55.686Z,0.1
2023-03-20T15:14:35.395Z,0.09
2023-03-20T15:16:15.170Z,0.1
2023-03-20T15:17:54.954Z,0.08
2023-03-20T15:19:34.709Z,0.1
2023-03-20T15:21:14.488Z,0.09
2023-03-20T15:22:54.264Z,0.08
2023-03-20T15:24:34.018Z,0.09
2023-03-20T15:26:13.791Z,0.08
2023-03-20T15:27:53.562Z,0.08
2023-03-20T15:29:33.337Z,0.08
2023-03-20T15:31:13.105Z,0.08
2023-03-20T15:32:52.877Z,0.08
2023-03-20T15:34:32.641Z,0.08
2023-03-20T15:36:12.422Z,0.09
2023-03-20T15:37:52.180Z,0.09
2023-03-20T15:39:31.947Z,0.08
2023-03-20T15:41:11.834Z,0.09
2023-03-20T15:42:51.496Z,0.08
2023-03-20T15:44:31.262Z,0.08
2023-03-20T15:46:11.067Z,0.09
2023-03-20T15:47:50.884Z,0.08
2023-03-20T15:49:30.647Z,0.1
2023-03-20T15:51:10.346Z,0.08
2023-03-20T15:52:50.149Z,0.07
2023-03-20T15:54:29.890Z,0.08
2023-03-20T15:56:09.662Z,0.08
2023-03-20T15:57:49.422Z,0.08
2023-03-20T15:59:29.204Z,0.09
2023-03-20T16:01:09.139Z,0.09
2023-03-20T16:02:48.752Z,0.09
2023-03-20T16:04:28.625Z,0.08
2023-03-20T16:06:08.299Z,0.08
2023-03-20T16:07:48.140Z,0.09
2023-03-20T16:09:27.845Z,0.09
2023-03-20T16:11:07.600Z,0.08
2023-03-20T16:12:47.387Z,0.08
2023-03-20T16:14:27.157Z,0.09
2023-03-20T16:16:06.911Z,0.08
2023-03-20T16:17:46.658Z,0.09
2023-03-20T16:19:26.461Z,0.1
2023-03-20T16:21:06.244Z,0.09
2023-03-20T16:22:45.985Z,0.1
2023-03-20T16:24:25.816Z,0.09
2023-03-20T16:26:05.597Z,0.05
2023-03-20T16:27:45.332Z,0.05
2023-03-20T16:29:25.129Z,0.06
2023-03-20T16:31:04.832Z,0.05
2023-03-20T16:32:44.637Z,0.06
2023-03-20T16:34:24.383Z,0.04
2023-03-20T16:36:04.139Z,0
2023-03-20T16:37:43.911Z,0.02
2023-03-20T16:39:23.678Z,0
2023-03-20T16:41:03.453Z,0.04
2023-03-20T16:42:43.210Z,0.09
2023-03-20T16:44:22.983Z,0.15
2023-03-20T16:46:02.776Z,0.05
2023-03-20T16:47:42.523Z,0.09
2023-03-20T16:49:22.293Z,0.04
2023-03-20T16:51:02.125Z,0
2023-03-20T16:52:41.896Z,0
2023-03-20T16:54:21.614Z,0
2023-03-20T16:56:01.418Z,0
2023-03-20T16:57:41.123Z,0
2023-03-20T16:59:20.895Z,0
2023-03-20T17:01:00.673Z,0
2023-03-20T17:02:40.435Z,0
2023-03-20T17:04:20.195Z,0
2023-03-20T17:05:59.967Z,0
2023-03-20T17:07:39.766Z,0
2023-03-20T17:09:19.500Z,0
2023-03-20T17:10:59.259Z,0
2023-03-20T17:12:39.081Z,0
2023-03-20T17:14:18.828Z,0
2023-03-20T17:15:58.612Z,0
2023-03-20T17:17:38.345Z,0
2023-03-20T17:19:18.134Z,0
2023-03-20T17:20:57.872Z,0
2023-03-20T17:22:37.635Z,0
2023-03-20T17:24:17.431Z,0
2023-03-20T17:25:57.401Z,0
2023-03-20T17:27:37.101Z,0
2023-03-20T17:29:16.710Z,0
2023-03-20T17:30:56.482Z,0
2023-03-20T17:32:36.260Z,0
2023-03-20T17:34:16.027Z,0
2023-03-20T17:35:55.780Z,0
2023-03-20T17:37:35.553Z,0
2023-03-20T17:39:15.300Z,0
2023-03-20T17:40:55.112Z,0
2023-03-20T17:42:34.870Z,0
2023-03-20T17:44:14.617Z,0
2023-03-20T17:45:54.400Z,0
2023-03-20T17:47:34.149Z,0
2023-03-20T17:49:13.921Z,0
2023-03-20T17:50:53.816Z,0
2023-03-20T17:52:33.449Z,0
2023-03-20T17:54:13.224Z,0
2023-03-20T17:55:52.994Z,0
2023-03-20T17:57:32.759Z,0
2023-03-20T17:59:12.520Z,0
2023-03-20T18:00:52.297Z,0
2023-03-20T18:02:32.064Z,0
2023-03-20T18:04:11.985Z,0
2023-03-20T18:05:51.725Z,0
2023-03-20T18:07:31.494Z,0
2023-03-20T18:09:11.133Z,0
2023-03-20T18:10:50.907Z,0
2023-03-20T18:12:30.709Z,0
2023-03-20T18:14:10.451Z,0
2023-03-20T18:15:50.217Z,0
2023-03-20T18:17:29.983Z,0
2023-03-20T18:19:09.778Z,0
2023-03-20T18:20:49.499Z,0
2023-03-20T18:22:29.482Z,0
2023-03-20T18:24:09.156Z,0
2023-03-20T18:25:48.805Z,0
2023-03-20T18:27:28.715Z,0
2023-03-20T18:29:08.340Z,0
2023-03-20T18:30:48.113Z,0
2023-03-20T18:32:27.876Z,0
2023-03-20T18:34:07.694Z,0
2023-03-20T18:35:47.463Z,0
2023-03-20T18:37:27.184Z,0
2023-03-20T18:39:06.952Z,0
2023-03-20T18:40:46.712Z,0
2023-03-20T18:42:26.486Z,0
2023-03-20T18:44:06.336Z,0
2023-03-20T18:45:46.067Z,0
2023-03-20T18:47:25.785Z,0
2023-03-20T18:49:05.560Z,0
2023-03-20T18:50:45.343Z,0
2023-03-20T18:52:25.092Z,0
2023-03-20T18:54:04.852Z,0
2023-03-20T18:55:44.643Z,0
2023-03-20T18:57:24.440Z,0
2023-03-20T18:59:04.157Z,0
2023-03-20T19:00:43.927Z,0
2023-03-20T19:02:23.683Z,0
2023-03-20T19:04:03.461Z,0
2023-03-20T19:05:43.242Z,0
2023-03-20T19:07:23.001Z,0
2023-03-20T19:09:02.763Z,0
2023-03-20T19:10:42.523Z,0
2023-03-20T19:12:22.313Z,0
2023-03-20T19:14:02.067Z,0
2023-03-20T19:15:41.826Z,0
2023-03-20T19:17:21.595Z,0
2023-03-20T19:19:01.361Z,0
2023-03-20T19:20:41.162Z,0
2023-03-20T19:22:20.895Z,0
2023-03-20T19:24:00.670Z,0
2023-03-20T19:25:40.430Z,0
2023-03-20T19:27:20.192Z,0
2023-03-20T19:28:59.963Z,0
2023-03-20T19:30:39.729Z,0
2023-03-20T19:32:19.487Z,0
2023-03-20T19:33:59.341Z,0
2023-03-20T19:35:39.028Z,0
2023-03-20T19:37:18.803Z,0
2023-03-20T19:38:58.573Z,0
2023-03-20T19:40:38.332Z,0
2023-03-20T19:42:18.099Z,0
2023-03-20T19:43:57.901Z,0
2023-03-20T19:45:37.641Z,0
2023-03-20T19:47:17.451Z,0
2023-03-20T19:48:57.230Z,0
2023-03-20T19:50:36.940Z,0
2023-03-20T19:52:16.702Z,0
2023-03-20T19:53:56.480Z,0
2023-03-20T19:55:36.238Z,0
2023-03-20T19:57:16.020Z,0
2023-03-20T19:58:55.775Z,0
2023-03-20T20:00:35.588Z,0
2023-03-20T20:02:15.321Z,0
2023-03-20T20:03:55.190Z,0
2023-03-20T20:05:34.846Z,0
2023-03-20T20:07:14.609Z,0
2023-03-20T20:08:54.374Z,0
2023-03-20T20:10:34.273Z,0
2023-03-20T20:12:14.026Z,0
2023-03-20T20:13:53.689Z,0
2023-03-20T20:15:33.489Z,0
2023-03-20T20:17:13.386Z,0
2023-03-20T20:18:53.117Z,0
2023-03-20T20:20:32.905Z,0
2023-03-20T20:22:12.518Z,0
2023-03-20T20:23:52.308Z,0
2023-03-20T20:25:32.094Z,0
2023-03-20T20:27:11.931Z,0
2023-03-20T20:28:51.593Z,0
2023-03-20T20:30:31.441Z,0
2023-03-20T20:32:11.136Z,0
2023-03-20T20:33:50.881Z,0
2023-03-20T20:35:30.651Z,0
2023-03-20T20:37:10.424Z,0
2023-03-20T20:38:50.207Z,0
2023-03-20T20:40:29.964Z,0
2023-03-20T20:42:09.722Z,0
2023-03-20T20:43:49.515Z,0
2023-03-20T20:45:29.287Z,0
2023-03-20T20:47:09.065Z,0
2023-03-20T20:48:48.798Z,0
2023-03-20T20:50:28.606Z,0
2023-03-20T20:52:08.334Z,0
2023-03-20T20:53:48.089Z,0
2023-03-20T20:55:27.863Z,0
2023-03-20T20:57:07.637Z,0
2023-03-20T20:58:47.427Z,0
2023-03-20T21:00:27.167Z,0
2023-03-20T21:02:06.938Z,0
2023-03-20T21:03:46.710Z,0
2023-03-20T21:05:26.479Z,0
2023-03-20T21:07:06.227Z,0
2023-03-20T21:08:46.033Z,0
2023-03-20T21:10:25.783Z,0
2023-03-20T21:12:05.546Z,0
2023-03-20T21:13:45.305Z,0
2023-03-20T21:15:25.089Z,0
2023-03-20T21:17:04.844Z,0
2023-03-20T21:18:44.612Z,0
2023-03-20T21:20:24.376Z,0
2023-03-20T21:22:04.153Z,0
2023-03-20T21:23:43.921Z,0
2023-03-20T21:25:23.673Z,0
2023-03-20T21:27:03.438Z,0
2023-03-20T21:28:43.223Z,0
2023-03-20T21:30:22.978Z,0
2023-03-20T21:32:02.748Z,0
2023-03-20T21:33:42.521Z,0
2023-03-20T21:35:22.277Z,0
2023-03-20T21:37:02.063Z,0
2023-03-20T21:38:41.834Z,0
2023-03-20T21:40:21.566Z,0
2023-03-20T21:42:01.358Z,0
2023-03-20T21:43:41.126Z,0
2023-03-20T21:45:20.898Z,0
2023-03-20T21:47:00.656Z,0
2023-03-20T21:48:40.415Z,0
2023-03-20T21:50:20.191Z,0
2023-03-20T21:51:59.963Z,0
2023-03-20T21:53:39.728Z,0
2023-03-20T21:55:19.484Z,0
2023-03-20T21:56:59.257Z,0
2023-03-20T21:58:39.037Z,0
2023-03-20T22:00:18.810Z,0
2023-03-20T22:01:58.594Z,0
2023-03-20T22:03:38.329Z,0
2023-03-20T22:05:18.087Z,0
2023-03-20T22:06:57.863Z,0
2023-03-20T22:08:37.627Z,0
2023-03-20T22:10:17.401Z,0
2023-03-20T22:11:57.172Z,0
2023-03-20T22:13:36.934Z,0
2023-03-20T22:15:16.699Z,0
2023-03-20T22:16:56.471Z,0
2023-03-20T22:18:36.241Z,0
2023-03-20T22:20:16.009Z,0
2023-03-20T22:21:55.766Z,0
2023-03-20T22:23:35.525Z,0
2023-03-20T22:25:15.292Z,0
2023-03-20T22:26:55.071Z,0
2023-03-20T22:28:34.834Z,0
2023-03-20T22:30:14.605Z,0
2023-03-20T22:31:54.380Z,0
2023-03-20T22:33:34.142Z,0
2023-03-20T22:35:13.914Z,0
2023-03-20T22:36:53.679Z,0
2023-03-20T22:38:33.449Z,0
2023-03-20T22:40:13.221Z,0
2023-03-20T22:41:52.986Z,0
2023-03-20T22:43:32.760Z,0
2023-03-20T22:45:12.521Z,0
2023-03-20T22:46:52.286Z,0
2023-03-20T22:48:32.052Z,0
2023-03-20T22:50:11.820Z,0
2023-03-20T22:51:51.593Z,0
2023-03-20T22:53:31.370Z,0
2023-03-20T22:55:11.118Z,0
2023-03-20T22:56:50.881Z,0
2023-03-20T22:58:30.644Z,0
2023-03-20T23:00:10.429Z,0
2023-03-20T23:01:50.194Z,0
2023-03-20T23:03:29.966Z,0
2023-03-20T23:05:09.728Z,0
2023-03-20T23:06:49.506Z,0
2023-03-20T23:08:29.254Z,0
2023-03-20T23:10:09.027Z,0
2023-03-20T23:11:48.795Z,0
2023-03-20T23:13:28.563Z,0
2023-03-20T23:15:08.328Z,0
2023-03-20T23:16:48.096Z,0
2023-03-20T23:18:27.866Z,0
2023-03-20T23:20:07.611Z,0
2023-03-20T23:21:47.388Z,0
2023-03-20T23:23:27.161Z,0
2023-03-20T23:25:06.934Z,0